createdAt,value
2018-10-21T00:00:45.206Z,9.93
2018-10-21T00:03:13.875Z,9.97
2018-10-21T00:05:42.454Z,9.43
2018-10-21T00:08:11.080Z,9.10
2018-10-21T00:10:39.709Z,8.70
2018-10-21T00:13:08.388Z,8.50
2018-10-21T00:15:37.075Z,8.40
2018-10-21T00:18:05.700Z,8.67
2018-10-21T00:20:34.304Z,8.83
2018-10-21T00:23:02.920Z,8.30
2018-10-21T00:25:31.577Z,8.60
2018-10-21T00:28:00.186Z,8.13
2018-10-21T00:30:28.875Z,8.17
2018-10-21T00:32:57.461Z,7.83
2018-10-21T00:35:26.030Z,8.33
2018-10-21T00:37:54.726Z,7.83
2018-10-21T00:40:23.330Z,8.00
2018-10-21T00:42:51.980Z,7.93
2018-10-21T00:45:20.701Z,7.93
2018-10-21T00:47:49.358Z,7.70
2018-10-21T00:50:18.026Z,7.80
2018-10-21T00:52:46.695Z,7.80
2018-10-21T00:55:15.381Z,7.23
2018-10-21T00:57:43.941Z,7.10
2018-10-21T01:00:13.630Z,7.10
2018-10-21T01:02:42.355Z,7.50
2018-10-21T01:05:12.060Z,7.10
2018-10-21T01:07:40.669Z,7.17
2018-10-21T01:10:10.948Z,6.47
2018-10-21T01:12:39.672Z,6.53
2018-10-21T01:15:09.899Z,6.83
2018-10-21T01:17:38.481Z,6.67
2018-10-21T01:20:09.013Z,6.43
2018-10-21T01:22:37.624Z,6.50
2018-10-21T01:25:06.755Z,6.27
2018-10-21T01:27:35.290Z,5.73
2018-10-21T01:30:04.228Z,6.00
2018-10-21T01:32:32.756Z,5.13
2018-10-21T01:35:01.309Z,5.77
2018-10-21T01:37:29.914Z,5.40
2018-10-21T01:40:32.132Z,5.30
2018-10-21T01:43:00.925Z,4.90
2018-10-21T01:45:29.677Z,5.80
2018-10-21T01:47:59.453Z,5.33
2018-10-21T01:50:28.090Z,5.57
2018-10-21T01:52:57.950Z,5.90
2018-10-21T01:55:26.871Z,5.40
2018-10-21T01:57:56.393Z,5.17
2018-10-21T02:00:25.580Z,5.70
2018-10-21T02:02:54.542Z,5.23
2018-10-21T02:05:23.229Z,5.03
2018-10-21T02:07:51.814Z,5.10
2018-10-21T02:10:20.348Z,5.03
2018-10-21T02:12:48.857Z,4.70
2018-10-21T02:15:17.397Z,4.90
2018-10-21T02:17:46.005Z,4.53
2018-10-21T02:20:15.485Z,4.40
2018-10-21T02:22:44.792Z,4.70
2018-10-21T02:25:13.396Z,4.93
2018-10-21T02:27:42.692Z,4.37
2018-10-21T02:30:15.152Z,4.97
2018-10-21T02:32:44.575Z,4.53
2018-10-21T02:35:13.704Z,4.43
2018-10-21T02:37:42.764Z,4.30
2018-10-21T02:41:28.489Z,5.03
2018-10-21T02:43:57.070Z,4.53
2018-10-21T02:46:25.989Z,4.90
2018-10-21T02:48:55.679Z,5.27
2018-10-21T02:51:24.256Z,5.27
2018-10-21T02:53:52.904Z,5.10
2018-10-21T02:56:21.644Z,5.33
2018-10-21T02:58:50.295Z,5.73
2018-10-21T03:01:18.852Z,5.43
2018-10-21T03:03:47.380Z,5.83
2018-10-21T03:06:15.924Z,5.97
2018-10-21T03:08:44.435Z,5.77
2018-10-21T03:11:12.969Z,5.83
2018-10-21T03:13:41.510Z,5.93
2018-10-21T03:16:10.112Z,6.50
2018-10-21T03:18:38.827Z,6.00
2018-10-21T03:21:07.519Z,6.07
2018-10-21T03:23:36.389Z,6.43
2018-10-21T03:26:05.080Z,6.07
2018-10-21T03:28:34.139Z,6.60
2018-10-21T03:31:02.814Z,6.93
2018-10-21T03:33:31.741Z,6.63
2018-10-21T03:36:00.389Z,6.20
2018-10-21T03:38:29.035Z,6.97
2018-10-21T03:40:57.648Z,6.00
2018-10-21T03:43:26.188Z,6.17
2018-10-21T03:45:55.159Z,6.30
2018-10-21T03:48:23.681Z,5.80
2018-10-21T03:50:52.306Z,6.70
2018-10-21T03:53:20.943Z,6.53
2018-10-21T03:55:49.600Z,6.63
2018-10-21T03:58:18.132Z,6.50
2018-10-21T04:00:46.701Z,5.80
2018-10-21T04:03:15.251Z,5.93
2018-10-21T04:05:43.789Z,6.17
2018-10-21T04:08:12.413Z,5.73
2018-10-21T04:10:41.028Z,6.37
2018-10-21T04:13:09.607Z,5.97
2018-10-21T04:15:38.528Z,6.20
2018-10-21T04:18:07.066Z,5.73
2018-10-21T04:20:35.673Z,6.92
2018-10-21T04:23:04.661Z,6.60
2018-10-21T04:25:34.431Z,5.93
2018-10-21T04:28:03.756Z,6.63
2018-10-21T04:30:34.378Z,5.83
2018-10-21T04:33:08.359Z,6.47
2018-10-21T04:35:36.950Z,5.33
2018-10-21T04:38:26.388Z,5.53
2018-10-21T04:40:55.046Z,5.40
2018-10-21T04:43:23.708Z,5.40
2018-10-21T04:45:52.292Z,6.00
2018-10-21T04:48:20.929Z,6.20
2018-10-21T04:51:18.444Z,5.37
2018-10-21T04:53:47.041Z,4.57
2018-10-21T04:56:15.661Z,5.23
2018-10-21T04:58:44.189Z,4.27
2018-10-21T05:01:12.868Z,4.92
2018-10-21T05:03:41.385Z,4.70
2018-10-21T05:06:09.913Z,5.97
2018-10-21T05:08:38.518Z,5.10
2018-10-21T05:11:07.169Z,6.53
2018-10-21T05:13:35.789Z,5.77
2018-10-21T05:16:04.438Z,5.20
2018-10-21T05:18:32.957Z,5.97
2018-10-21T05:21:01.533Z,5.80
2018-10-21T05:23:30.108Z,5.30
2018-10-21T05:25:58.741Z,5.17
2018-10-21T05:28:27.523Z,5.93
2018-10-21T05:30:56.140Z,6.50
2018-10-21T05:33:24.718Z,5.50
2018-10-21T05:35:53.614Z,5.27
2018-10-21T05:39:31.729Z,5.70
2018-10-21T05:42:01.154Z,6.15
2018-10-21T05:44:29.834Z,5.07
2018-10-21T05:46:58.465Z,4.47
2018-10-21T05:49:27.160Z,4.40
2018-10-21T05:51:55.766Z,4.37
2018-10-21T05:54:24.473Z,5.20
2018-10-21T05:56:53.105Z,4.77
2018-10-21T05:59:21.775Z,5.03
2018-10-21T06:01:50.432Z,5.03
2018-10-21T06:04:19.271Z,4.27
2018-10-21T06:06:47.944Z,4.53
2018-10-21T06:09:16.539Z,4.47
2018-10-21T06:11:45.097Z,4.53
2018-10-21T06:14:13.631Z,4.40
2018-10-21T06:16:46.719Z,4.27
2018-10-21T06:19:20.745Z,4.10
2018-10-21T06:21:49.310Z,4.37
2018-10-21T06:24:17.940Z,4.03
2018-10-21T06:26:46.658Z,3.50
2018-10-21T06:29:15.566Z,3.80
2018-10-21T06:31:44.232Z,4.33
2018-10-21T06:34:12.820Z,4.47
2018-10-21T06:36:41.429Z,4.00
2018-10-21T06:39:10.202Z,3.33
2018-10-21T06:41:38.836Z,4.80
2018-10-21T06:44:07.447Z,4.07
2018-10-21T06:46:36.069Z,4.30
2018-10-21T06:49:05.354Z,4.87
2018-10-21T06:51:33.905Z,4.70
2018-10-21T06:54:02.476Z,3.93
2018-10-21T06:56:31.096Z,3.90
2018-10-21T06:58:59.696Z,4.00
2018-10-21T07:01:28.661Z,4.00
2018-10-21T07:03:57.280Z,4.20
2018-10-21T07:06:28.791Z,4.97
2018-10-21T07:08:58.950Z,4.37
2018-10-21T07:11:27.538Z,4.80
2018-10-21T07:13:56.113Z,4.80
2018-10-21T07:16:24.766Z,4.33
2018-10-21T07:18:53.594Z,4.80
2018-10-21T07:21:22.190Z,4.63
2018-10-21T07:23:50.801Z,4.27
2018-10-21T07:26:19.473Z,4.50
2018-10-21T07:28:48.077Z,5.20
2018-10-21T07:31:16.742Z,4.80
2018-10-21T07:33:45.460Z,5.20
2018-10-21T07:36:14.243Z,6.90
2018-10-21T07:38:42.875Z,6.08
2018-10-21T07:41:11.713Z,5.97
2018-10-21T07:43:40.376Z,6.07
2018-10-21T07:46:10.796Z,5.83
2018-10-21T07:48:39.365Z,7.10
2018-10-21T07:51:09.919Z,6.80
2018-10-21T07:53:39.716Z,7.27
2018-10-21T07:56:11.176Z,7.30
2018-10-21T07:58:40.943Z,8.18
2018-10-21T08:01:09.622Z,7.90
2018-10-21T08:03:38.408Z,7.40
2018-10-21T08:06:30.432Z,8.00
2018-10-21T08:08:59.195Z,7.43
2018-10-21T08:11:27.962Z,7.20
2018-10-21T08:13:59.704Z,7.90
2018-10-21T08:16:28.409Z,7.67
2018-10-21T08:18:57.094Z,7.50
2018-10-21T08:21:25.864Z,7.73
2018-10-21T08:23:54.577Z,6.80
2018-10-21T08:26:23.299Z,7.53
2018-10-21T08:28:54.807Z,7.70
2018-10-21T08:31:23.481Z,7.60
2018-10-21T08:33:52.218Z,7.87
2018-10-21T08:36:22.052Z,8.13
2018-10-21T08:39:06.189Z,7.70
2018-10-21T08:41:35.907Z,7.13
2018-10-21T08:44:04.704Z,6.90
2018-10-21T08:46:34.222Z,7.63
2018-10-21T08:49:04.025Z,8.33
2018-10-21T08:51:34.527Z,7.80
2018-10-21T08:54:03.177Z,7.80
2018-10-21T08:56:31.824Z,7.77
2018-10-21T08:59:00.705Z,8.93
2018-10-21T09:01:29.397Z,8.93
2018-10-21T09:03:59.727Z,8.87
2018-10-21T09:06:28.356Z,9.27
2018-10-21T09:08:57.145Z,8.80
2018-10-21T09:11:25.729Z,8.13
2018-10-21T09:13:54.352Z,9.03
2018-10-21T09:16:23.128Z,8.53
2018-10-21T09:18:52.669Z,8.53
2018-10-21T09:21:21.271Z,8.30
2018-10-21T09:23:50.054Z,8.67
2018-10-21T09:26:18.810Z,8.97
2018-10-21T09:28:47.441Z,10.03
2018-10-21T09:31:16.223Z,9.20
2018-10-21T09:33:44.980Z,10.40
2018-10-21T09:36:15.021Z,9.00
2018-10-21T09:38:43.644Z,9.07
2018-10-21T09:41:12.415Z,8.60
2018-10-21T09:43:41.061Z,8.97
2018-10-21T09:46:09.765Z,8.10
2018-10-21T09:48:38.593Z,7.53
2018-10-21T09:51:07.281Z,6.50
2018-10-21T09:53:35.839Z,7.50
2018-10-21T09:56:04.421Z,5.30
2018-10-21T09:58:33.068Z,3.67
2018-10-21T10:01:06.936Z,4.70
2018-10-21T10:03:35.700Z,3.90
2018-10-21T10:06:04.352Z,3.93
2018-10-21T10:08:33.124Z,4.07
2018-10-21T10:11:01.673Z,3.77
2018-10-21T10:13:30.462Z,3.97
2018-10-21T10:15:59.087Z,4.23
2018-10-21T10:18:28.277Z,3.87
2018-10-21T10:20:59.975Z,4.40
2018-10-21T10:23:28.644Z,4.30
2018-10-21T10:25:57.826Z,4.30
2018-10-21T10:28:26.543Z,4.42
2018-10-21T10:30:55.171Z,3.98
2018-10-21T10:33:23.809Z,4.03
2018-10-21T10:35:52.573Z,4.83
2018-10-21T10:38:21.282Z,4.17
2018-10-21T10:40:50.497Z,4.50
2018-10-21T10:43:19.382Z,4.70
2018-10-21T10:45:48.284Z,4.67
2018-10-21T10:48:17.030Z,4.75
2018-10-21T10:50:45.853Z,4.67
2018-10-21T10:53:14.561Z,4.70
2018-10-21T10:55:47.653Z,4.65
2018-10-21T10:58:17.084Z,4.28
2018-10-21T11:00:45.937Z,3.72
2018-10-21T11:03:15.741Z,3.80
2018-10-21T11:05:44.563Z,4.33
2018-10-21T11:08:13.294Z,4.58
2018-10-21T11:10:42.067Z,4.97
2018-10-21T11:13:10.875Z,14.93
2018-10-21T11:15:39.574Z,14.58
2018-10-21T11:18:10.285Z,3.67
2018-10-21T11:20:38.982Z,3.75
2018-10-21T11:23:07.704Z,4.62
2018-10-21T11:25:36.249Z,4.62
2018-10-21T11:28:05.557Z,4.83
2018-10-21T11:30:34.106Z,3.60
2018-10-21T11:33:02.916Z,4.17
2018-10-21T11:35:31.672Z,3.90
2018-10-21T11:38:00.567Z,4.65
2018-10-21T11:40:29.199Z,4.70
2018-10-21T11:42:57.933Z,4.78
2018-10-21T11:45:26.786Z,4.03
2018-10-21T11:47:55.460Z,4.42
2018-10-21T11:50:24.296Z,4.80
2018-10-21T11:52:53.137Z,4.70
2018-10-21T11:55:21.955Z,5.17
2018-10-21T11:57:50.698Z,4.05
2018-10-21T12:00:19.457Z,4.30
2018-10-21T12:02:48.041Z,4.53
2018-10-21T12:05:16.648Z,4.67
2018-10-21T12:07:45.268Z,3.85
2018-10-21T12:10:14.086Z,4.12
2018-10-21T12:12:42.578Z,4.30
2018-10-21T12:15:11.436Z,3.52
2018-10-21T12:17:40.126Z,3.42
2018-10-21T12:20:08.824Z,3.40
2018-10-21T12:22:37.540Z,3.45
2018-10-21T12:25:06.623Z,3.00
2018-10-21T12:27:35.162Z,3.33
2018-10-21T12:30:03.793Z,3.65
2018-10-21T12:32:32.464Z,4.15
2018-10-21T12:35:01.252Z,3.80
2018-10-21T12:37:29.840Z,3.98
2018-10-21T12:39:58.631Z,4.05
2018-10-21T12:42:27.306Z,4.12
2018-10-21T12:44:55.937Z,3.87
2018-10-21T12:47:24.625Z,3.12
2018-10-21T12:49:53.220Z,3.10
2018-10-21T12:52:21.922Z,3.30
2018-10-21T12:54:50.659Z,3.37
2018-10-21T12:57:19.294Z,3.77
2018-10-21T12:59:47.932Z,3.00
2018-10-21T13:02:16.574Z,3.17
2018-10-21T13:04:45.201Z,3.77
2018-10-21T13:07:14.079Z,3.42
2018-10-21T13:09:42.729Z,3.80
2018-10-21T13:12:11.363Z,4.08
2018-10-21T13:14:40.005Z,4.17
2018-10-21T13:17:08.632Z,4.35
2018-10-21T13:19:37.186Z,4.35
2018-10-21T13:22:05.856Z,5.28
2018-10-21T13:24:34.448Z,3.77
2018-10-21T13:27:02.988Z,4.53
2018-10-21T13:29:31.593Z,5.17
2018-10-21T13:32:00.247Z,4.87
2018-10-21T13:34:28.818Z,5.05
2018-10-21T13:36:57.431Z,4.28
2018-10-21T13:39:26.045Z,4.25
2018-10-21T13:41:54.593Z,4.70
2018-10-21T13:44:23.139Z,4.80
2018-10-21T13:46:51.841Z,4.65
2018-10-21T13:49:20.381Z,4.97
2018-10-21T13:51:49.121Z,4.37
2018-10-21T13:54:17.615Z,4.72
2018-10-21T13:56:46.257Z,4.73
2018-10-21T13:59:14.916Z,4.60
2018-10-21T14:01:43.401Z,4.65
2018-10-21T14:04:12.231Z,5.42
2018-10-21T14:06:40.800Z,4.40
2018-10-21T14:09:13.445Z,4.80
2018-10-21T14:11:42.013Z,5.05
2018-10-21T14:14:11.670Z,4.35
2018-10-21T14:16:40.607Z,4.62
2018-10-21T14:19:09.604Z,5.17
2018-10-21T14:21:38.222Z,4.78
2018-10-21T14:24:07.150Z,5.37
2018-10-21T14:26:35.684Z,4.50
2018-10-21T14:29:04.276Z,5.17
2018-10-21T14:31:32.873Z,5.40
2018-10-21T14:34:01.420Z,4.95
2018-10-21T14:36:29.994Z,4.83
2018-10-21T14:38:58.636Z,5.00
2018-10-21T14:41:27.136Z,4.47
2018-10-21T14:43:55.729Z,4.83
2018-10-21T14:46:24.333Z,4.55
2018-10-21T14:48:52.944Z,5.60
2018-10-21T14:51:21.570Z,4.80
2018-10-21T14:53:50.202Z,4.85
2018-10-21T14:56:18.919Z,4.65
2018-10-21T14:58:47.466Z,4.40
2018-10-21T15:01:16.097Z,4.70
2018-10-21T15:03:44.713Z,4.45
2018-10-21T15:06:13.335Z,4.15
2018-10-21T15:08:42.572Z,3.90
2018-10-21T15:11:11.153Z,3.72
2018-10-21T15:13:39.821Z,4.65
2018-10-21T15:16:08.467Z,3.80
2018-10-21T15:18:37.064Z,4.03
2018-10-21T15:21:05.704Z,4.45
2018-10-21T15:23:34.432Z,4.20
2018-10-21T15:26:03.198Z,3.72
2018-10-21T15:28:31.917Z,4.17
2018-10-21T15:31:00.669Z,4.03
2018-10-21T15:33:29.416Z,3.77
2018-10-21T15:35:58.213Z,4.00
2018-10-21T15:38:26.839Z,4.17
2018-10-21T15:40:55.722Z,4.20
2018-10-21T15:43:24.574Z,4.03
2018-10-21T15:45:53.595Z,4.22
2018-10-21T15:48:22.445Z,3.98
2018-10-21T15:50:51.165Z,3.80
2018-10-21T15:53:20.613Z,4.40
2018-10-21T15:55:49.518Z,4.70
2018-10-21T15:58:18.367Z,4.72
2018-10-21T16:00:47.019Z,3.92
2018-10-21T16:03:15.611Z,3.83
2018-10-21T16:05:44.199Z,4.65
2018-10-21T16:08:12.879Z,4.03
2018-10-21T16:10:41.430Z,4.10
2018-10-21T16:13:10.613Z,4.90
2018-10-21T16:15:39.334Z,4.70
2018-10-21T16:18:08.043Z,4.50
2018-10-21T16:20:37.144Z,4.20
2018-10-21T16:23:05.810Z,4.30
2018-10-21T16:25:34.433Z,4.20
2018-10-21T16:28:03.093Z,3.90
2018-10-21T16:30:31.603Z,3.70
2018-10-21T16:33:00.451Z,4.35
2018-10-21T16:35:28.931Z,4.83
2018-10-21T16:37:57.634Z,4.47
2018-10-21T16:40:26.387Z,4.50
2018-10-21T16:42:54.978Z,6.85
2018-10-21T16:45:23.921Z,5.50
2018-10-21T16:47:52.854Z,5.80
2018-10-21T16:50:21.414Z,6.13
2018-10-21T16:52:50.230Z,6.50
2018-10-21T16:55:18.941Z,4.43
2018-10-21T16:57:47.530Z,5.03
2018-10-21T17:00:17.415Z,5.80
2018-10-21T17:02:46.042Z,5.97
2018-10-21T17:05:14.887Z,4.93
2018-10-21T17:07:43.487Z,4.80
2018-10-21T17:10:12.908Z,4.23
2018-10-21T17:12:41.181Z,3.70
2018-10-21T17:15:10.929Z,3.73
2018-10-21T17:17:40.525Z,3.50
2018-10-21T17:20:10.818Z,3.50
2018-10-21T17:22:40.262Z,4.07
2018-10-21T17:25:09.122Z,3.40
2018-10-21T17:27:37.703Z,3.37
2018-10-21T17:30:11.554Z,3.43
2018-10-21T17:32:40.158Z,3.63
2018-10-21T17:35:09.539Z,3.97
2018-10-21T17:37:38.344Z,3.70
2018-10-21T17:40:08.110Z,3.60
2018-10-21T17:42:36.730Z,3.90
2018-10-21T17:45:07.135Z,3.53
2018-10-21T17:47:35.672Z,3.43
2018-10-21T17:50:04.614Z,4.17
2018-10-21T17:52:33.278Z,3.47
2018-10-21T17:55:01.961Z,4.07
2018-10-21T17:57:30.622Z,3.80
2018-10-21T17:59:59.252Z,3.80
2018-10-21T18:02:27.900Z,4.13
2018-10-21T18:04:56.457Z,3.60
2018-10-21T18:07:25.238Z,3.90
2018-10-21T18:09:53.847Z,3.93
2018-10-21T18:12:22.440Z,3.60
2018-10-21T18:14:50.994Z,4.07
2018-10-21T18:17:19.650Z,3.97
2018-10-21T18:19:48.269Z,4.10
2018-10-21T18:22:17.343Z,3.97
2018-10-21T18:24:46.445Z,3.67
2018-10-21T18:27:15.031Z,3.63
2018-10-21T18:29:43.591Z,3.53
2018-10-21T18:32:12.160Z,3.80
2018-10-21T18:34:40.917Z,3.73
2018-10-21T18:37:09.962Z,4.10
2018-10-21T18:39:38.504Z,3.50
2018-10-21T18:42:07.277Z,3.20
2018-10-21T18:44:35.800Z,3.60
2018-10-21T18:47:05.543Z,3.90
2018-10-21T18:49:34.381Z,3.80
2018-10-21T18:52:02.993Z,4.13
2018-10-21T18:54:31.641Z,3.73
2018-10-21T18:57:00.352Z,4.30
2018-10-21T18:59:28.973Z,6.50
2018-10-21T19:01:57.633Z,4.33
2018-10-21T19:04:26.316Z,4.30
2018-10-21T19:06:55.109Z,3.73
2018-10-21T19:09:23.730Z,3.57
2018-10-21T19:11:52.319Z,4.53
2018-10-21T19:14:20.921Z,3.90
2018-10-21T19:16:49.514Z,3.80
2018-10-21T19:19:18.150Z,4.27
2018-10-21T19:21:46.638Z,3.80
2018-10-21T19:24:15.299Z,3.73
2018-10-21T19:26:43.949Z,4.10
2018-10-21T19:29:12.531Z,4.00
2018-10-21T19:31:41.174Z,4.17
2018-10-21T19:34:09.783Z,4.93
2018-10-21T19:36:38.444Z,3.60
2018-10-21T19:39:09.693Z,4.23
2018-10-21T19:41:38.353Z,4.33
2018-10-21T19:44:08.090Z,4.20
2018-10-21T19:46:36.640Z,4.00
2018-10-21T19:49:05.747Z,4.20
2018-10-21T19:51:34.405Z,3.60
2018-10-21T19:54:02.996Z,3.80
2018-10-21T19:56:32.259Z,4.20
2018-10-21T19:59:02.265Z,4.27
2018-10-21T20:01:30.798Z,4.30
2018-10-21T20:03:59.473Z,4.10
2018-10-21T20:06:28.549Z,3.90
2018-10-21T20:08:57.351Z,4.27
2018-10-21T20:11:26.076Z,4.70
2018-10-21T20:13:55.137Z,4.40
2018-10-21T20:16:23.893Z,4.20
2018-10-21T20:18:53.159Z,4.03
2018-10-21T20:21:21.741Z,4.13
2018-10-21T20:23:50.379Z,4.27
2018-10-21T20:26:19.030Z,4.37
2018-10-21T20:28:48.467Z,4.40
2018-10-21T20:31:17.727Z,4.50
2018-10-21T20:33:46.614Z,4.60
2018-10-21T20:36:15.153Z,4.70
2018-10-21T20:38:44.051Z,4.50
2018-10-21T20:41:12.756Z,4.80
2018-10-21T20:43:41.468Z,4.70
2018-10-21T20:46:10.081Z,4.50
2018-10-21T20:48:38.652Z,4.57
2018-10-21T20:51:07.302Z,4.63
2018-10-21T20:53:36.185Z,4.77
2018-10-21T20:56:04.973Z,5.00
2018-10-21T20:58:33.724Z,4.70
2018-10-21T21:01:02.458Z,4.27
2018-10-21T21:03:31.208Z,4.40
2018-10-21T21:05:59.981Z,4.40
2018-10-21T21:08:28.696Z,4.40
2018-10-21T21:10:57.362Z,4.60
2018-10-21T21:13:26.202Z,7.73
2018-10-21T21:15:55.030Z,5.43
2018-10-21T21:18:23.658Z,4.70
2018-10-21T21:20:52.405Z,4.77
2018-10-21T21:23:21.553Z,5.13
2018-10-21T21:25:50.123Z,4.60
2018-10-21T21:28:18.677Z,4.77
2018-10-21T21:30:47.257Z,4.80
2018-10-21T21:33:15.902Z,4.77
2018-10-21T21:35:44.635Z,4.20
2018-10-21T21:38:13.242Z,5.60
2018-10-21T21:40:41.837Z,4.43
2018-10-21T21:43:10.452Z,4.60
2018-10-21T21:45:39.506Z,4.80
2018-10-21T21:48:08.114Z,4.47
2018-10-21T21:50:36.801Z,4.77
2018-10-21T21:53:05.687Z,4.63
2018-10-21T21:55:34.246Z,4.87
2018-10-21T21:58:02.866Z,4.83
2018-10-21T22:00:31.810Z,4.97
2018-10-21T22:03:00.427Z,4.97
2018-10-21T22:05:29.007Z,4.43
2018-10-21T22:07:57.592Z,5.20
2018-10-21T22:10:26.206Z,4.63
2018-10-21T22:12:54.801Z,4.77
2018-10-21T22:15:23.376Z,5.27
2018-10-21T22:17:51.972Z,4.30
2018-10-21T22:20:20.598Z,4.57
2018-10-21T22:22:49.275Z,4.63
2018-10-21T22:25:17.896Z,4.97
2018-10-21T22:27:46.506Z,4.30
2018-10-21T22:30:15.260Z,4.37
2018-10-21T22:32:43.806Z,4.40
2018-10-21T22:35:12.424Z,4.63
2018-10-21T22:37:40.953Z,4.67
2018-10-21T22:40:09.598Z,5.20
2018-10-21T22:42:38.663Z,4.50
2018-10-21T22:45:08.555Z,4.20
2018-10-21T22:47:37.350Z,4.70
2018-10-21T22:50:07.820Z,5.07
2018-10-21T22:52:36.846Z,4.60
2018-10-21T22:55:06.372Z,4.83
2018-10-21T22:57:34.955Z,5.20
2018-10-21T23:00:03.596Z,4.63
2018-10-21T23:02:32.201Z,4.40
2018-10-21T23:05:00.769Z,3.83
2018-10-21T23:07:29.335Z,4.57
2018-10-21T23:09:57.988Z,4.33
2018-10-21T23:12:26.533Z,4.40
2018-10-21T23:14:55.131Z,4.27
2018-10-21T23:17:24.310Z,4.87
2018-10-21T23:19:52.990Z,4.40
2018-10-21T23:22:21.663Z,4.60
2018-10-21T23:24:50.177Z,4.53
2018-10-21T23:27:18.713Z,4.80
2018-10-21T23:29:47.284Z,4.47
2018-10-21T23:32:15.825Z,4.83
2018-10-21T23:34:45.012Z,4.60
2018-10-21T23:37:13.585Z,4.70
2018-10-21T23:39:42.184Z,4.73
2018-10-21T23:42:10.744Z,4.53
2018-10-21T23:44:39.336Z,5.27
2018-10-21T23:47:07.908Z,4.90
2018-10-21T23:49:39.616Z,4.57
2018-10-21T23:52:08.644Z,4.50
2018-10-21T23:54:37.247Z,4.43
2018-10-21T23:57:07.044Z,4.60
2018-10-21T23:59:36.563Z,4.50
